Time;durP1;ratioP1;P1;durP2;ratioP2;P2;SDS_P1;SDS_P2;PMS_P1;PMS_P2;Temp;Humidity;BMP_temperature;BMP_pressure;BME280_temperature;BME280_humidity;BME280_pressure;Samples;Min_cycle;Max_cycle;Signal;HPM_P1;HPM_P2
2022/05/10 00:01:47;;;;;;;8.07;2.40;;;;;;;9.13;100.00;100558.63;4983516;28;20025;-84
2022/05/10 00:04:13;;;;;;;13.50;3.15;;;;;;;9.15;100.00;100559.28;5032798;28;20441;-84
2022/05/10 00:06:45;;;;;;;16.38;3.30;;;;;;;9.00;100.00;100550.28;5047981;28;20037;-84
2022/05/10 00:09:12;;;;;;;18.98;3.95;;;;;;;8.99;100.00;100556.63;5057774;28;20035;-84
2022/05/10 00:11:38;;;;;;;12.30;2.47;;;;;;;9.06;100.00;100556.81;5036022;28;20029;-84
2022/05/10 00:14:07;;;;;;;17.55;3.45;;;;;;;9.09;100.00;100557.28;5036495;28;20164;-83
2022/05/10 00:16:38;;;;;;;8.15;2.75;;;;;;;8.98;100.00;100522.78;5040337;28;20037;-81
2022/05/10 00:19:04;;;;;;;8.88;3.25;;;;;;;9.19;100.00;100552.56;5041157;28;20048;-85
2022/05/10 00:21:29;;;;;;;14.30;3.22;;;;;;;9.19;100.00;100557.94;5038368;28;20462;-83
2022/05/10 00:23:55;;;;;;;7.10;1.83;;;;;;;9.18;100.00;100556.28;5035667;28;20048;-85
2022/05/10 00:26:21;;;;;;;14.02;2.58;;;;;;;9.23;100.00;100556.59;5041103;28;20398;-83
2022/05/10 00:28:47;;;;;;;16.88;3.15;;;;;;;9.27;100.00;100546.34;5034706;28;20124;-86
2022/05/10 00:31:12;;;;;;;19.73;3.05;;;;;;;9.23;100.00;100524.41;5042169;28;20035;-85
2022/05/10 00:33:38;;;;;;;18.88;3.85;;;;;;;9.31;100.00;100528.03;5026162;28;20112;-84
2022/05/10 00:36:05;;;;;;;11.15;2.38;;;;;;;9.50;100.00;100543.75;5011224;28;20083;-84
2022/05/10 00:38:39;;;;;;;21.00;3.50;;;;;;;9.53;100.00;100539.88;4999839;28;20075;-83
2022/05/10 00:41:34;;;;;;;13.63;1.80;;;;;;;9.60;100.00;100533.63;5032796;28;20168;-87
2022/05/10 00:44:09;;;;;;;18.38;2.88;;;;;;;9.64;100.00;100529.59;5037273;28;20052;-84
2022/05/10 00:46:42;;;;;;;25.17;3.33;;;;;;;9.66;100.00;100530.25;5042705;28;20036;-84
2022/05/10 00:49:17;;;;;;;20.27;4.68;;;;;;;9.69;100.00;100527.22;5041053;28;21918;-84
2022/05/10 00:51:47;;;;;;;11.98;2.25;;;;;;;9.65;100.00;100507.09;5026449;28;20545;-82
2022/05/10 00:54:25;;;;;;;25.33;4.38;;;;;;;9.72;100.00;100525.19;5032468;28;20500;-84
2022/05/10 00:57:06;;;;;;;23.25;3.38;;;;;;;9.58;100.00;100526.75;5046292;28;20091;-85
2022/05/10 00:59:41;;;;;;;13.57;2.55;;;;;;;9.50;100.00;100519.59;5027194;28;20525;-83
2022/05/10 01:02:16;;;;;;;22.45;3.70;;;;;;;9.52;100.00;100528.28;5021822;28;20036;-84
2022/05/10 01:04:53;;;;;;;18.80;3.92;;;;;;;9.52;100.00;100533.66;5034030;28;20037;-84
2022/05/10 01:07:24;;;;;;;4.47;2.33;;;;;;;9.44;100.00;100531.84;5029709;28;20025;-84
2022/05/10 01:09:58;;;;;;;1.25;0.50;;;;;;;9.41;100.00;100536.72;5027873;28;20059;-82
2022/05/10 01:12:36;;;;;;;0.68;0.68;;;;;;;9.36;100.00;100517.63;5026923;28;20024;-81
2022/05/10 01:15:06;;;;;;;1.33;1.05;;;;;;;9.34;100.00;100514.28;5066359;28;20036;-80
2022/05/10 01:17:31;;;;;;;0.57;0.57;;;;;;;9.31;100.00;100511.94;5030395;28;20390;-81
2022/05/10 01:19:57;;;;;;;0.60;0.60;;;;;;;9.29;100.00;100511.28;5014602;28;20037;-82
2022/05/10 01:22:31;;;;;;;0.30;0.30;;;;;;;9.28;100.00;100498.88;5026256;28;20044;-81
2022/05/10 01:24:57;;;;;;;0.73;0.70;;;;;;;9.22;100.00;100505.78;5042821;28;20068;-81
2022/05/10 01:27:46;;;;;;;0.47;0.47;;;;;;;9.15;100.00;100492.22;5044016;28;20052;-80
2022/05/10 01:30:18;;;;;;;0.40;0.40;;;;;;;9.06;100.00;100495.13;5029893;28;20086;-81
2022/05/10 01:35:57;;;;;;;0.40;0.40;;;;;;;8.94;100.00;100490.09;5063997;28;20033;-81
2022/05/10 01:39:01;;;;;;;0.43;0.43;;;;;;;9.05;100.00;100494.28;5029775;28;20029;-81
2022/05/10 01:41:35;;;;;;;0.40;0.40;;;;;;;9.06;100.00;100482.53;4981776;28;20078;-81
2022/05/10 01:44:19;;;;;;;0.40;0.40;;;;;;;8.98;100.00;100461.13;5035804;28;20087;-81
2022/05/10 01:46:46;;;;;;;0.40;0.40;;;;;;;9.13;100.00;100480.84;5048370;28;20044;-84
2022/05/10 01:49:18;;;;;;;0.40;0.40;;;;;;;9.19;100.00;100476.63;5044339;28;20121;-81
2022/05/10 01:51:55;;;;;;;0.30;0.30;;;;;;;9.22;100.00;100473.59;5028859;28;20033;-80
2022/05/10 01:54:39;;;;;;;0.30;0.30;;;;;;;9.26;100.00;100466.84;5016645;28;20470;-81
2022/05/10 01:57:07;;;;;;;0.30;0.30;;;;;;;9.25;100.00;100462.50;5058926;28;20041;-82
2022/05/10 01:59:37;;;;;;;0.30;0.30;;;;;;;9.31;100.00;100477.06;5027280;28;20090;-81
2022/05/10 02:02:03;;;;;;;0.40;0.40;;;;;;;9.29;100.00;100466.53;5033857;28;20029;-81
2022/05/10 02:04:33;;;;;;;0.50;0.50;;;;;;;9.31;100.00;100469.03;5021516;28;20116;-80
2022/05/10 02:07:19;;;;;;;0.40;0.40;;;;;;;9.33;100.00;100470.53;5043971;28;20619;-82
2022/05/10 02:10:01;;;;;;;0.40;0.40;;;;;;;9.30;100.00;100465.50;5029433;28;20048;-83
2022/05/10 02:12:34;;;;;;;0.90;0.90;;;;;;;9.31;100.00;100467.16;5029241;28;20063;-81
2022/05/10 02:15:06;;;;;;;;;;;;;;;9.33;100.00;100470.53;5045172;28;20059;-78
2022/05/10 02:17:38;;;;;;;0.40;0.40;;;;;;;9.35;100.00;100460.44;5050708;28;19974;-81
2022/05/10 02:20:13;;;;;;;0.40;0.40;;;;;;;9.39;100.00;100460.94;5045983;28;20482;-79
2022/05/10 02:23:33;;;;;;;0.40;0.40;;;;;;;9.43;100.00;100454.22;5040176;28;20115;-82
2022/05/10 02:26:16;;;;;;;0.40;0.40;;;;;;;9.36;100.00;100447.88;4981214;28;20101;-83
2022/05/10 02:28:48;;;;;;;0.40;0.40;;;;;;;9.36;100.00;100451.38;5032592;28;20111;-81
2022/05/10 02:31:20;;;;;;;0.40;0.40;;;;;;;9.37;100.00;100449.56;5046309;28;20115;-84
2022/05/10 02:33:47;;;;;;;0.40;0.40;;;;;;;9.40;100.00;100450.03;5025902;28;20095;-82
2022/05/10 02:36:12;;;;;;;0.40;0.40;;;;;;;9.34;100.00;100444.53;5044203;28;20029;-82
2022/05/10 02:38:39;;;;;;;0.30;0.30;;;;;;;9.28;100.00;100440.69;5011697;28;20409;-82
2022/05/10 02:41:25;;;;;;;0.30;0.30;;;;;;;9.34;100.00;100445.38;5030377;28;20044;-81
2022/05/10 02:43:58;;;;;;;0.40;0.40;;;;;;;9.27;100.00;100432.84;5040469;28;20114;-81
2022/05/10 02:46:24;;;;;;;0.30;0.30;;;;;;;9.27;100.00;100433.66;5039307;28;20123;-82
2022/05/10 02:48:50;;;;;;;0.40;0.40;;;;;;;9.21;100.00;100429.84;5028638;28;20045;-83
2022/05/10 02:51:16;;;;;;;0.40;0.40;;;;;;;9.19;100.00;100429.16;5013945;28;20147;-82
2022/05/10 02:53:42;;;;;;;0.30;0.30;;;;;;;9.14;100.00;100415.44;5038815;28;20036;-83
2022/05/10 02:56:13;;;;;;;0.40;0.40;;;;;;;9.19;100.00;100421.13;5047490;28;20040;-82
2022/05/10 02:58:48;;;;;;;0.40;0.40;;;;;;;9.23;100.00;100426.97;5018966;28;20041;-81
2022/05/10 03:01:22;;;;;;;0.40;0.40;;;;;;;9.24;100.00;100434.84;5041953;28;20044;-82
2022/05/10 03:03:52;;;;;;;0.32;0.32;;;;;;;9.19;100.00;100428.34;5027745;28;20324;-83
2022/05/10 03:06:21;;;;;;;0.40;0.40;;;;;;;9.24;100.00;100434.03;5041985;28;20043;-81
2022/05/10 03:08:47;;;;;;;0.38;0.38;;;;;;;9.17;100.00;100425.81;5045808;28;20512;-81
2022/05/10 03:11:17;;;;;;;0.35;0.35;;;;;;;9.11;100.00;100426.53;5066509;28;20400;-81
2022/05/10 03:13:48;;;;;;;0.40;0.40;;;;;;;9.04;100.00;100436.28;5014699;28;20084;-82
2022/05/10 03:16:16;;;;;;;0.40;0.40;;;;;;;9.00;100.00;100430.44;5006540;28;20045;-81
2022/05/10 03:18:43;;;;;;;0.60;0.60;;;;;;;8.95;100.00;100443.53;5029005;28;20748;-81
2022/05/10 03:21:08;;;;;;;0.40;0.40;;;;;;;8.79;100.00;100431.00;5028461;28;20037;-81
2022/05/10 03:23:35;;;;;;;0.38;0.38;;;;;;;8.59;100.00;100421.66;5008736;28;20055;-83
2022/05/10 03:26:01;;;;;;;0.30;0.30;;;;;;;8.53;100.00;100435.75;5060295;28;20108;-81
2022/05/10 03:28:27;;;;;;;0.30;0.30;;;;;;;8.55;100.00;100444.47;5007598;28;20045;-81
2022/05/10 03:30:53;;;;;;;0.40;0.40;;;;;;;8.53;100.00;100438.44;5039969;28;20029;-82
2022/05/10 03:33:19;;;;;;;0.32;0.32;;;;;;;8.47;100.00;100434.59;5054364;28;20082;-83
2022/05/10 03:35:44;;;;;;;0.40;0.40;;;;;;;8.44;100.00;100442.97;5036373;28;21840;-81
2022/05/10 03:38:10;;;;;;;0.30;0.30;;;;;;;8.51;100.00;100435.09;5035081;28;21886;-81
2022/05/10 03:40:35;;;;;;;0.30;0.30;;;;;;;8.65;100.00;100426.34;5040952;28;20055;-81
2022/05/10 03:43:01;;;;;;;0.32;0.32;;;;;;;8.79;100.00;100433.69;5043777;28;20592;-81
2022/05/10 03:45:27;;;;;;;0.40;0.40;;;;;;;8.78;100.00;100418.59;5041301;28;20040;-83
2022/05/10 03:47:54;;;;;;;0.40;0.40;;;;;;;8.80;100.00;100426.47;5034957;28;20094;-82
2022/05/10 03:50:28;;;;;;;0.30;0.30;;;;;;;8.72;100.00;100418.47;5021993;28;20489;-82
2022/05/10 03:52:54;;;;;;;0.40;0.40;;;;;;;8.79;100.00;100422.13;5043298;28;20036;-81
2022/05/10 03:55:22;;;;;;;0.30;0.30;;;;;;;8.78;100.00;100418.59;5022411;28;20044;-82
2022/05/10 03:57:49;;;;;;;0.30;0.30;;;;;;;8.75;100.00;100402.03;5002630;28;20036;-83
2022/05/10 04:00:21;;;;;;;0.40;0.40;;;;;;;8.89;100.00;100409.38;5052031;28;20044;-83
2022/05/10 04:02:46;;;;;;;0.40;0.40;;;;;;;8.90;100.00;100402.97;5009118;28;20467;-82
2022/05/10 04:05:13;;;;;;;0.30;0.30;;;;;;;8.96;100.00;100404.97;5024210;28;20048;-81
2022/05/10 04:07:39;;;;;;;0.40;0.40;;;;;;;8.97;100.00;100401.28;5017574;28;20513;-82
2022/05/10 04:10:06;;;;;;;0.30;0.30;;;;;;;9.02;100.00;100398.06;5045306;28;20032;-81
2022/05/10 04:12:32;;;;;;;0.38;0.38;;;;;;;9.05;100.00;100394.19;5041641;28;20032;-83
2022/05/10 04:14:57;;;;;;;0.40;0.40;;;;;;;9.06;100.00;100394.03;5038814;28;20083;-83
2022/05/10 04:17:23;;;;;;;0.30;0.30;;;;;;;9.06;100.00;100396.72;5039576;28;20041;-83
2022/05/10 04:19:49;;;;;;;0.32;0.32;;;;;;;8.99;100.00;100385.00;5022670;28;20032;-83
2022/05/10 04:22:15;;;;;;;0.38;0.38;;;;;;;9.01;100.00;100389.19;5042752;28;20091;-83
2022/05/10 04:24:41;;;;;;;0.52;0.52;;;;;;;9.11;100.00;100397.03;5044999;28;20468;-82
2022/05/10 04:27:07;;;;;;;0.40;0.40;;;;;;;9.14;100.00;100391.31;5022625;28;22023;-81
2022/05/10 04:29:33;;;;;;;0.40;0.40;;;;;;;9.19;100.00;100393.47;5022026;28;20053;-82
2022/05/10 04:31:58;;;;;;;0.40;0.40;;;;;;;9.06;100.00;100367.22;5046263;28;20083;-82
2022/05/10 04:34:24;;;;;;;0.40;0.40;;;;;;;9.06;100.00;100387.84;5044069;28;20041;-82
2022/05/10 04:36:49;;;;;;;0.40;0.40;;;;;;;8.97;100.00;100377.16;5046444;28;20041;-82
2022/05/10 04:39:15;;;;;;;0.30;0.30;;;;;;;9.04;100.00;100390.69;5048560;28;20028;-82
2022/05/10 04:41:45;;;;;;;0.40;0.40;;;;;;;9.02;100.00;100387.34;5013765;28;20560;-83
2022/05/10 04:44:11;;;;;;;0.30;0.30;;;;;;;8.99;100.00;100376.97;5036481;28;20025;-84
2022/05/10 04:46:39;;;;;;;0.40;0.40;;;;;;;9.00;100.00;100392.06;5020241;28;20032;-81
2022/05/10 04:49:07;;;;;;;0.30;0.30;;;;;;;8.96;100.00;100388.88;5042140;28;20033;-80
2022/05/10 04:51:33;;;;;;;0.40;0.40;;;;;;;8.96;100.00;100385.34;5046628;28;20024;-82
2022/05/10 04:54:01;;;;;;;0.40;0.40;;;;;;;8.96;100.00;100396.91;5046905;28;20033;-81
2022/05/10 04:56:27;;;;;;;0.40;0.40;;;;;;;9.00;100.00;100390.22;5025170;28;20064;-81
2022/05/10 04:58:54;;;;;;;0.30;0.30;;;;;;;9.06;100.00;100399.41;5036287;28;20572;-82
2022/05/10 05:01:22;;;;;;;0.40;0.40;;;;;;;9.04;100.00;100382.63;5021705;28;20048;-80
2022/05/10 05:03:49;;;;;;;3.55;0.90;;;;;;;9.14;100.00;100393.16;5025850;28;20032;-82
2022/05/10 05:06:18;;;;;;;0.82;0.60;;;;;;;9.19;100.00;100399.66;5024547;28;20550;-83
2022/05/10 05:08:44;;;;;;;0.47;0.47;;;;;;;9.23;100.00;100409.03;5034782;28;20028;-81
2022/05/10 05:11:10;;;;;;;0.50;0.50;;;;;;;9.19;100.00;100399.66;5023492;28;20513;-83
2022/05/10 05:13:36;;;;;;;1.55;0.50;;;;;;;9.09;100.00;100391.00;5039591;28;20041;-82
2022/05/10 05:16:02;;;;;;;0.40;0.40;;;;;;;9.10;100.00;100406.06;5016938;28;20343;-82
2022/05/10 05:18:28;;;;;;;1.80;1.23;;;;;;;9.08;100.00;100402.75;5002382;28;20126;-85
2022/05/10 05:20:54;;;;;;;0.50;0.50;;;;;;;9.12;100.00;100414.78;5020960;28;20929;-82
2022/05/10 05:23:21;;;;;;;5.80;1.20;;;;;;;9.13;100.00;100416.47;5036935;28;20390;-82
2022/05/10 05:25:47;;;;;;;0.40;0.40;;;;;;;9.09;100.00;100415.13;5025348;28;20029;-82
2022/05/10 05:28:13;;;;;;;1.92;0.77;;;;;;;9.06;100.00;100420.03;5005750;28;21126;-83
2022/05/10 05:30:39;;;;;;;0.82;0.82;;;;;;;8.85;100.00;100408.03;5035955;28;20037;-83
2022/05/10 05:33:06;;;;;;;11.55;1.02;;;;;;;8.83;100.00;100431.47;5042698;28;20498;-85
2022/05/10 05:35:33;;;;;;;0.40;0.40;;;;;;;8.75;100.00;100434.19;5033890;28;20051;-84
2022/05/10 05:37:58;;;;;;;0.40;0.40;;;;;;;8.54;100.00;100421.34;5035653;28;20032;-85
2022/05/10 05:40:24;;;;;;;0.40;0.40;;;;;;;8.66;100.00;100445.97;5034332;28;20020;-82
2022/05/10 05:42:51;;;;;;;0.40;0.40;;;;;;;8.69;100.00;100438.41;5033144;28;20036;-83
2022/05/10 05:45:19;;;;;;;0.40;0.40;;;;;;;9.29;100.00;100454.94;5034762;28;20482;-85
2022/05/10 05:47:45;;;;;;;0.40;0.40;;;;;;;10.01;100.00;100447.47;5021698;28;20036;-82
2022/05/10 05:50:12;;;;;;;1.35;0.60;;;;;;;10.85;100.00;100447.38;5024553;28;20056;-84
2022/05/10 05:52:39;;;;;;;0.40;0.40;;;;;;;11.06;100.00;100445.78;5040308;28;20494;-84
2022/05/10 05:55:05;;;;;;;0.40;0.40;;;;;;;10.82;100.00;100454.97;5043235;28;20087;-82
2022/05/10 05:57:31;;;;;;;0.60;0.60;;;;;;;10.38;100.00;100445.84;5035965;28;20119;-83
2022/05/10 05:59:58;;;;;;;0.85;0.40;;;;;;;10.15;100.00;100442.31;5027823;28;20041;-81
2022/05/10 06:02:24;;;;;;;0.40;0.40;;;;;;;10.06;100.00;100455.00;5014494;28;20068;-84
2022/05/10 06:04:51;;;;;;;0.63;0.63;;;;;;;10.04;100.00;100452.47;5032833;28;20029;-82
2022/05/10 06:07:16;;;;;;;0.40;0.40;;;;;;;10.00;100.00;100450.31;5015157;28;20035;-85
2022/05/10 06:09:43;;;;;;;2.08;1.95;;;;;;;9.88;100.00;100417.69;5013360;28;20034;-82
2022/05/10 06:12:10;;;;;;;0.50;0.50;;;;;;;9.97;100.00;100445.31;5029726;28;20029;-85
2022/05/10 06:14:37;;;;;;;2.20;0.73;;;;;;;9.96;100.00;100441.78;5028737;28;20037;-83
2022/05/10 06:17:04;;;;;;;0.40;0.40;;;;;;;10.03;100.00;100450.81;5014450;28;20437;-82
2022/05/10 06:19:30;;;;;;;0.40;0.40;;;;;;;9.93;100.00;100444.00;5039086;28;20310;-82
2022/05/10 06:21:56;;;;;;;2.80;2.60;;;;;;;9.88;100.00;100439.16;5049244;28;20032;-83
2022/05/10 06:24:25;;;;;;;0.55;0.55;;;;;;;10.32;100.00;100441.19;5031218;28;20522;-83
2022/05/10 06:26:51;;;;;;;7.25;0.60;;;;;;;10.43;100.00;100439.94;5047913;28;20032;-80
2022/05/10 06:29:17;;;;;;;0.80;0.80;;;;;;;10.90;100.00;100447.66;5016441;28;20043;-81
2022/05/10 06:31:44;;;;;;;1.00;0.90;;;;;;;11.81;100.00;100453.53;5015100;28;20041;-82
2022/05/10 06:34:10;;;;;;;0.95;0.82;;;;;;;12.54;100.00;100454.22;5047963;28;20028;-80
2022/05/10 06:36:37;;;;;;;1.20;0.88;;;;;;;12.83;100.00;100462.28;5031103;28;20045;-80
2022/05/10 06:39:03;;;;;;;2.40;1.52;;;;;;;13.32;100.00;100453.25;5025700;28;20421;-82
2022/05/10 06:41:31;;;;;;;3.83;2.08;;;;;;;14.93;98.13;100458.63;5055299;28;20044;-81
2022/05/10 06:44:00;;;;;;;8.27;1.63;;;;;;;14.67;99.07;100457.63;5041027;28;20730;-83
2022/05/10 06:46:27;;;;;;;4.40;1.80;;;;;;;13.51;100.00;100452.47;5025709;28;20036;-81
2022/05/10 06:48:53;;;;;;;12.68;2.10;;;;;;;12.84;100.00;100470.19;5035320;28;20040;-83
2022/05/10 06:51:21;;;;;;;6.72;1.65;;;;;;;12.41;100.00;100467.59;5032810;28;20479;-82
2022/05/10 06:53:47;;;;;;;10.85;2.10;;;;;;;12.36;100.00;100469.19;5049809;28;20033;-80
2022/05/10 06:56:13;;;;;;;12.38;1.95;;;;;;;12.32;100.00;100479.53;5032015;28;20074;-81
2022/05/10 06:58:39;;;;;;;13.48;2.75;;;;;;;12.28;100.00;100480.97;5049495;28;20033;-80
2022/05/10 07:01:10;;;;;;;15.55;2.78;;;;;;;12.97;100.00;100475.66;5066954;28;20052;-81
2022/05/10 07:03:36;;;;;;;13.85;2.85;;;;;;;13.94;100.00;100473.78;5042133;28;22683;-81
2022/05/10 07:06:05;;;;;;;8.98;2.42;;;;;;;13.43;100.00;100476.13;5067082;28;20367;-80
2022/05/10 07:08:31;;;;;;;12.82;2.15;;;;;;;13.14;100.00;100486.97;5061111;28;20033;-79
2022/05/10 07:10:56;;;;;;;9.70;2.42;;;;;;;14.25;98.74;100451.56;5063555;28;20029;-81
2022/05/10 07:13:26;;;;;;;17.70;2.95;;;;;;;14.16;99.19;100477.16;5036582;28;20064;-81
2022/05/10 07:15:51;;;;;;;12.95;2.42;;;;;;;13.04;100.00;100453.28;5024855;28;20029;-80
2022/05/10 07:18:18;;;;;;;16.67;2.30;;;;;;;12.37;100.00;100477.09;5037116;28;20403;-80
2022/05/10 07:20:44;;;;;;;14.73;2.88;;;;;;;12.03;100.00;100496.66;5037922;28;20039;-81
2022/05/10 07:23:11;;;;;;;11.55;3.17;;;;;;;14.40;96.57;100483.84;5034776;28;20122;-82
2022/05/10 07:25:37;;;;;;;12.85;2.50;;;;;;;14.35;92.91;100471.97;5014339;28;20398;-80
2022/05/10 07:28:03;;;;;;;17.00;2.53;;;;;;;14.85;91.69;100489.47;5011871;28;20056;-79
2022/05/10 07:30:30;;;;;;;9.32;2.53;;;;;;;16.83;82.07;100480.50;5035120;28;20041;-80
2022/05/10 07:32:57;;;;;;;8.50;1.73;;;;;;;17.71;77.95;100468.41;5019040;28;20093;-82
2022/05/10 07:38:12;;;;;;;15.90;2.45;;;;;;;17.55;77.56;100479.91;5048101;28;20079;-81
2022/05/10 07:40:38;;;;;;;14.02;2.78;;;;;;;18.66;73.69;100502.16;5031956;28;20025;-81
2022/05/10 07:43:05;;;;;;;17.15;2.78;;;;;;;18.79;72.92;100493.81;5037420;28;20067;-80
2022/05/10 07:45:32;;;;;;;11.93;2.00;;;;;;;16.67;80.15;100492.75;5042988;28;20063;-82
2022/05/10 07:47:57;;;;;;;8.95;1.90;;;;;;;15.36;87.82;100496.84;5044942;28;20045;-82
2022/05/10 07:50:23;;;;;;;14.75;2.33;;;;;;;15.00;90.08;100500.03;5027271;28;20036;-81
2022/05/10 07:52:49;;;;;;;22.30;3.00;;;;;;;14.07;91.56;100489.19;5047970;28;20448;-81
2022/05/10 07:55:14;;;;;;;12.23;2.75;;;;;;;13.52;95.49;100508.19;5008367;28;20036;-81
2022/05/10 07:57:40;;;;;;;13.60;3.05;;;;;;;15.05;89.32;100500.25;5043007;28;20384;-81
2022/05/10 08:00:11;;;;;;;18.92;2.42;;;;;;;14.65;90.21;100508.41;5048501;28;20059;-81
2022/05/10 08:02:37;;;;;;;13.57;2.33;;;;;;;14.18;92.83;100503.97;5044468;28;20063;-82
2022/05/10 08:05:03;;;;;;;14.43;2.72;;;;;;;13.43;96.14;100493.16;5046594;28;20470;-81
2022/05/10 08:07:29;;;;;;;13.68;2.35;;;;;;;13.17;97.50;100499.22;5034259;28;20087;-81
2022/05/10 08:09:55;;;;;;;17.02;3.08;;;;;;;13.74;95.46;100505.34;5032872;28;20033;-79
2022/05/10 08:12:21;;;;;;;13.70;2.53;;;;;;;16.39;83.16;100508.63;5045167;28;20108;-81
2022/05/10 08:14:46;;;;;;;13.70;2.88;;;;;;;17.66;76.39;100497.34;5020632;28;20360;-84
2022/05/10 08:17:12;;;;;;;11.70;2.20;;;;;;;19.00;70.14;100500.53;5045874;28;20075;-82
2022/05/10 08:19:38;;;;;;;18.30;2.92;;;;;;;20.05;66.43;100511.44;5047354;28;20119;-82
2022/05/10 08:22:04;;;;;;;16.98;2.83;;;;;;;20.67;65.72;100508.72;5041506;28;20033;-82
2022/05/10 08:24:30;;;;;;;19.98;3.08;;;;;;;20.97;62.66;100516.56;5011608;28;20071;-81
2022/05/10 08:26:55;;;;;;;13.65;2.83;;;;;;;21.24;60.23;100508.47;5013554;28;20135;-82
2022/05/10 08:29:21;;;;;;;17.90;3.17;;;;;;;21.50;58.27;100512.41;5014045;28;20547;-82
2022/05/10 08:31:47;;;;;;;16.70;2.50;;;;;;;21.69;54.93;100517.56;5043291;28;20506;-82
2022/05/10 08:34:12;;;;;;;8.30;2.85;;;;;;;21.68;55.38;100491.28;5034828;28;20033;-83
2022/05/10 08:36:38;;;;;;;24.55;3.38;;;;;;;22.00;51.77;100506.94;5022401;28;20394;-84
2022/05/10 08:39:03;;;;;;;16.35;3.08;;;;;;;22.24;50.40;100507.50;5045808;28;20041;-82
2022/05/10 08:41:34;;;;;;;25.27;3.25;;;;;;;22.46;51.20;100515.63;5017910;28;20052;-82
2022/05/10 08:44:11;;;;;;;16.35;3.03;;;;;;;22.19;50.90;100491.00;5028974;28;20036;-83
2022/05/10 08:46:39;;;;;;;9.82;3.22;;;;;;;21.42;51.07;100507.38;5026335;28;20123;-81
2022/05/10 08:49:28;;;;;;;14.45;2.65;;;;;;;22.30;47.03;100517.41;5026913;28;20042;-82
2022/05/10 08:51:54;;;;;;;12.73;2.88;;;;;;;22.41;49.14;100505.44;5041002;28;20505;-82
2022/05/10 08:54:19;;;;;;;19.50;4.53;;;;;;;22.95;47.73;100494.34;5042885;28;20029;-84
2022/05/10 08:56:56;;;;;;;18.85;3.35;;;;;;;21.99;50.87;100500.66;5046561;28;20441;-82
2022/05/10 08:59:34;;;;;;;19.10;3.63;;;;;;;20.60;48.36;100505.34;5025146;28;20521;-82
2022/05/10 09:02:34;;;;;;;22.48;4.03;;;;;;;21.80;50.69;100508.38;5046473;28;20025;-85
2022/05/10 09:05:21;;;;;;;10.98;2.45;;;;;;;19.44;52.01;100481.03;5026194;28;20087;-83
2022/05/10 09:07:52;;;;;;;18.02;3.30;;;;;;;20.80;48.46;100511.13;5046845;28;20031;-84
2022/05/10 09:10:34;;;;;;;17.80;3.03;;;;;;;20.88;44.08;100514.50;5041016;28;20037;-84
2022/05/10 09:13:14;;;;;;;16.52;2.47;;;;;;;19.27;48.30;100509.03;5044045;28;20039;-84
2022/05/10 09:15:46;;;;;;;13.93;2.83;;;;;;;18.17;49.99;100520.50;5049499;28;20056;-83
2022/05/10 09:18:21;;;;;;;15.15;3.47;;;;;;;18.12;50.42;100502.16;5020264;28;20041;-85
2022/05/10 09:21:02;;;;;;;19.08;2.60;;;;;;;19.18;49.31;100513.19;5042847;28;20120;-84
2022/05/10 09:23:35;;;;;;;20.65;3.42;;;;;;;20.71;46.38;100509.06;5039297;28;20037;-82
2022/05/10 09:26:01;;;;;;;16.27;3.58;;;;;;;23.44;39.94;100501.50;5028805;28;20033;-84
2022/05/10 09:28:29;;;;;;;10.30;2.35;;;;;;;20.76;43.16;100476.34;5049798;28;20033;-84
2022/05/10 09:36:29;;;;;;;15.25;3.50;;;;;;;21.70;43.37;100491.84;5055953;28;20101;-83
2022/05/10 09:39:14;;;;;;;14.25;3.10;;;;;;;24.00;37.75;100481.66;5033608;28;20087;-84
2022/05/10 09:41:41;;;;;;;18.20;3.00;;;;;;;25.15;36.00;100486.59;5043939;28;20033;-86
2022/05/10 09:44:23;;;;;;;10.25;2.42;;;;;;;24.85;34.74;100498.47;5016359;28;20030;-87
2022/05/10 09:46:49;;;;;;;9.77;2.47;;;;;;;21.65;39.92;100489.06;5033110;28;20123;-87
2022/05/10 09:49:36;;;;;;;11.98;2.42;;;;;;;19.03;45.90;100494.63;5050840;28;20024;-87
2022/05/10 09:52:03;;;;;;;14.60;2.50;;;;;;;17.81;47.40;100462.44;5048127;28;20124;-85
2022/05/10 09:54:38;;;;;;;15.07;2.75;;;;;;;16.73;51.87;100504.59;5037313;28;20091;-81
2022/05/10 09:57:05;;;;;;;33.10;3.13;;;;;;;16.13;55.27;100499.59;5055190;28;20033;-86
2022/05/10 09:59:38;;;;;;;14.40;2.38;;;;;;;15.94;57.99;100516.84;5044424;28;20135;-84
2022/05/10 10:02:04;;;;;;;;;;;;;;;15.92;65.64;100513.50;5033318;28;20124;-84
2022/05/10 10:04:35;;;;;;;20.83;3.70;;;;;;;16.76;65.02;100514.19;5046099;28;19924;-83
2022/05/10 10:07:28;;;;;;;15.02;2.38;;;;;;;16.48;67.66;100524.44;5053084;28;20046;-83
2022/05/10 10:10:14;;;;;;;21.73;3.15;;;;;;;14.52;77.85;100522.78;5046373;28;20044;-81
2022/05/10 10:12:42;;;;;;;24.75;3.17;;;;;;;13.73;84.13;100533.38;5042029;28;20040;-81
2022/05/10 10:15:35;;;;;;;21.48;3.53;;;;;;;13.19;90.15;100529.56;5013224;28;20793;-82
2022/05/10 10:18:08;;;;;;;11.95;2.75;;;;;;;13.40;91.74;100525.97;5046588;28;20041;-80
2022/05/10 10:20:51;;;;;;;16.45;3.22;;;;;;;13.73;92.39;100526.09;5029060;28;20048;-80
2022/05/10 10:23:25;;;;;;;13.98;3.55;;;;;;;15.52;86.41;100505.53;5045866;28;20028;-80
2022/05/10 10:25:53;;;;;;;15.90;3.35;;;;;;;18.23;77.75;100511.41;5046773;28;20463;-82
2022/05/10 10:28:31;;;;;;;14.30;2.95;;;;;;;18.45;73.57;100526.16;5024642;28;20087;-82
2022/05/10 10:31:16;;;;;;;15.57;2.97;;;;;;;20.32;65.54;100498.00;5026561;28;20120;-83
2022/05/10 10:33:51;;;;;;;10.63;3.58;;;;;;;21.92;59.49;100527.41;5028446;28;20040;-81
2022/05/10 10:36:21;;;;;;;13.07;3.30;;;;;;;23.42;54.01;100492.72;5042281;28;20021;-84
2022/05/10 10:38:56;;;;;;;11.02;3.35;;;;;;;24.23;50.21;100519.59;5038506;28;20458;-85
2022/05/10 10:41:38;;;;;;;9.43;2.83;;;;;;;24.70;49.51;100523.25;5048609;28;20025;-82
2022/05/10 10:44:10;;;;;;;8.43;2.97;;;;;;;25.85;43.46;100507.81;5032526;28;20022;-85
2022/05/10 10:46:56;;;;;;;11.27;2.20;;;;;;;24.07;46.55;100521.50;5017720;28;20044;-84
2022/05/10 10:49:28;;;;;;;8.25;2.67;;;;;;;21.36;54.17;100534.91;5026804;28;20079;-84
2022/05/10 10:51:54;;;;;;;12.75;2.88;;;;;;;20.80;59.39;100529.44;5046499;28;20040;-83
2022/05/10 10:54:24;;;;;;;10.90;3.22;;;;;;;20.57;60.47;100522.22;5052104;28;20417;-82
2022/05/10 10:57:18;;;;;;;15.30;2.20;;;;;;;20.55;55.17;100530.66;5041158;28;20040;-83
2022/05/10 11:00:19;;;;;;;9.07;3.55;;;;;;;21.00;50.60;100507.84;5047070;28;20037;-83
2022/05/10 11:03:01;;;;;;;16.02;3.58;;;;;;;23.00;42.22;100526.50;5050369;28;20633;-80
2022/05/10 11:05:51;;;;;;;12.93;3.22;;;;;;;24.10;37.08;100531.13;5025221;28;20083;-82
2022/05/10 11:08:23;;;;;;;16.48;3.17;;;;;;;24.74;36.25;100538.06;5025785;28;20048;-84
2022/05/10 11:10:57;;;;;;;7.63;2.53;;;;;;;24.43;39.53;100523.50;5050251;28;20029;-83
2022/05/10 11:13:44;;;;;;;17.27;3.63;;;;;;;24.69;41.84;100514.19;5050351;28;20036;-81
2022/05/10 11:16:20;;;;;;;7.40;2.53;;;;;;;24.78;39.72;100506.19;5034480;28;20032;-80
2022/05/10 11:19:16;;;;;;;14.85;3.08;;;;;;;24.65;35.77;100531.47;5049571;28;20127;-84
2022/05/10 11:22:07;;;;;;;9.65;2.20;;;;;;;24.79;32.75;100518.81;5034439;28;20059;-83
2022/05/10 11:24:41;;;;;;;10.10;2.70;;;;;;;24.12;33.67;100510.53;5046613;28;20086;-83
2022/05/10 11:27:39;;;;;;;17.40;3.08;;;;;;;24.88;33.21;100519.94;5052100;28;20029;-82
2022/05/10 11:30:08;;;;;;;17.17;2.92;;;;;;;25.91;32.32;100517.72;5041115;28;20036;-83
2022/05/10 11:32:42;;;;;;;17.02;2.92;;;;;;;23.65;35.12;100505.97;5032037;28;20039;-83
2022/05/10 11:35:23;;;;;;;9.98;3.03;;;;;;;24.99;32.52;100502.28;5052105;28;20115;-82
2022/05/10 11:38:15;;;;;;;13.03;2.83;;;;;;;25.81;32.09;100514.97;5025727;28;20033;-81
2022/05/10 11:40:56;;;;;;;11.32;2.40;;;;;;;23.62;36.41;100506.50;5008798;28;20274;-84
2022/05/10 11:43:24;;;;;;;14.13;3.20;;;;;;;24.58;34.11;100504.25;5031550;28;20032;-82
2022/05/10 11:46:09;;;;;;;12.43;3.08;;;;;;;25.79;32.63;100506.16;5051907;28;20109;-83
2022/05/10 11:48:43;;;;;;;10.05;2.42;;;;;;;25.43;32.97;100507.16;5044282;28;20028;-82
2022/05/10 11:51:39;;;;;;;10.18;2.53;;;;;;;25.25;33.33;100498.69;5049804;28;20033;-85